You are not logged in, Click here to log in
金浦國際機場 / RKSS 韓國首爾江西區
ICAO: RKSS Country: 韓國首爾江西區
Latitude: 37.5587 Longitude: 126.794
Total Arrivals: 10 Total Departures: 8
Latest Arrival: CZ317 (ZBAA-RKSS)CHU. CHUHAO Latest Departure: FS38 (RKSS-RCTP)CHU. CHUHAO
Scenery:
METAR : RKSS 090800Z 13009KT 8000 -RA BKN025 OVC080 08/02 Q1020 BECMG TL0830 NSW

金浦國際機場

You are accessing this site from IP address 100.26.176.182. Virtual Airline. CMS by phpVMS.Website designed by Zumeweb and edited by Theo Bearman.
There is 0 User(s) Online: | and 5 Guest(s) Online.
All information on this site is for fight simulation purposes only. This site is for flight logging for pilots of Virtual Airline&模擬飛行論壇 FlySim only.